createdAt,value
2022-07-28T00:00:50.263Z,4.00
2022-07-28T00:01:50.262Z,0.00
2022-07-28T00:02:50.278Z,4.00
2022-07-28T00:03:50.225Z,4.00
2022-07-28T00:04:50.214Z,4.00
2022-07-28T00:05:50.236Z,4.00
2022-07-28T00:06:50.184Z,4.00
2022-07-28T00:07:50.174Z,4.00
2022-07-28T00:08:50.178Z,4.00
2022-07-28T00:09:50.144Z,4.00
2022-07-28T00:10:50.137Z,4.00
2022-07-28T00:11:54.146Z,4.00
2022-07-28T00:12:50.148Z,4.00
2022-07-28T00:13:50.108Z,4.00
2022-07-28T00:14:50.099Z,4.00
2022-07-28T00:15:50.161Z,4.00
2022-07-28T00:16:50.139Z,4.00
2022-07-28T00:17:50.079Z,4.00
2022-07-28T00:18:50.052Z,0.00
2022-07-28T00:19:50.046Z,0.00
2022-07-28T00:20:50.042Z,4.00
2022-07-28T00:21:50.010Z,4.00
2022-07-28T00:22:50.044Z,4.00
2022-07-28T00:23:49.992Z,4.00
2022-07-28T00:24:49.982Z,4.00
2022-07-28T00:25:49.980Z,4.00
2022-07-28T00:26:49.963Z,4.00
2022-07-28T00:27:49.964Z,4.00
2022-07-28T00:28:49.947Z,4.00
2022-07-28T00:29:51.254Z,4.00
2022-07-28T00:30:49.912Z,4.00
2022-07-28T00:31:50.013Z,4.00
2022-07-28T00:32:49.905Z,4.00
2022-07-28T00:33:49.905Z,4.00
2022-07-28T00:34:49.877Z,4.00
2022-07-28T00:35:49.857Z,4.00
2022-07-28T00:36:49.849Z,4.00
2022-07-28T00:37:49.855Z,4.00
2022-07-28T00:38:49.838Z,4.00
2022-07-28T00:39:49.816Z,4.00
2022-07-28T00:40:49.800Z,4.00
2022-07-28T00:41:49.781Z,4.00
2022-07-28T00:42:49.788Z,4.00
2022-07-28T00:43:49.770Z,4.00
2022-07-28T00:44:49.782Z,4.00
2022-07-28T00:45:49.739Z,4.00
2022-07-28T00:46:49.806Z,4.00
2022-07-28T00:47:49.731Z,4.00
2022-07-28T00:48:49.738Z,4.00
2022-07-28T00:49:49.699Z,4.00
2022-07-28T00:50:49.711Z,4.00
2022-07-28T00:51:49.672Z,4.00
2022-07-28T00:52:49.682Z,4.00
2022-07-28T00:53:49.652Z,4.00
2022-07-28T00:54:49.643Z,4.00
2022-07-28T00:56:05.353Z,4.00
2022-07-28T00:56:50.622Z,4.00
2022-07-28T00:57:49.619Z,4.00
2022-07-28T00:58:49.604Z,4.00
2022-07-28T00:59:49.586Z,0.00
2022-07-28T01:00:49.595Z,0.00
2022-07-28T01:01:49.634Z,4.00
2022-07-28T01:02:49.638Z,0.00
2022-07-28T01:03:49.581Z,0.00
2022-07-28T01:04:49.520Z,0.00
2022-07-28T01:05:49.507Z,0.00
2022-07-28T01:06:49.509Z,0.00
2022-07-28T01:07:49.506Z,4.00
2022-07-28T01:08:49.478Z,0.00
2022-07-28T01:09:49.461Z,0.00
2022-07-28T01:10:49.461Z,0.00
2022-07-28T01:11:49.440Z,0.00
2022-07-28T01:12:49.449Z,0.00
2022-07-28T01:13:49.429Z,0.00
2022-07-28T01:14:49.412Z,0.00
2022-07-28T01:15:49.442Z,0.00
2022-07-28T01:16:49.382Z,0.00
2022-07-28T01:17:49.413Z,0.00
2022-07-28T01:18:49.365Z,0.00
2022-07-28T01:19:49.357Z,4.00
2022-07-28T01:20:49.351Z,8.00
2022-07-28T01:21:49.327Z,8.00
2022-07-28T01:22:49.333Z,0.00
2022-07-28T01:23:49.298Z,0.00
2022-07-28T01:24:49.304Z,0.00
2022-07-28T01:25:49.284Z,0.00
2022-07-28T01:26:49.275Z,0.00
2022-07-28T01:27:49.278Z,0.00
2022-07-28T01:28:49.255Z,0.00
2022-07-28T01:29:49.249Z,0.00
2022-07-28T01:30:49.264Z,0.00
2022-07-28T01:31:49.224Z,0.00
2022-07-28T01:32:49.239Z,0.00
2022-07-28T01:33:49.197Z,0.00
2022-07-28T01:34:49.178Z,0.00
2022-07-28T01:35:49.178Z,0.00
2022-07-28T01:36:49.159Z,0.00
2022-07-28T01:37:49.169Z,0.00
2022-07-28T01:38:49.140Z,0.00
2022-07-28T01:39:49.119Z,0.00
2022-07-28T01:40:50.403Z,0.00
2022-07-28T01:41:49.103Z,0.00
2022-07-28T01:42:49.112Z,0.00
2022-07-28T01:43:49.076Z,0.00
2022-07-28T01:44:49.066Z,0.00
2022-07-28T01:45:49.063Z,0.00
2022-07-28T01:46:49.107Z,0.00
2022-07-28T01:47:49.054Z,0.00
2022-07-28T01:48:49.107Z,0.00
2022-07-28T01:49:49.013Z,0.00
2022-07-28T01:50:48.997Z,0.00
2022-07-28T01:51:48.994Z,0.00
2022-07-28T01:52:48.974Z,0.00
2022-07-28T01:53:48.954Z,0.00
2022-07-28T01:54:49.221Z,0.00
2022-07-28T01:55:48.943Z,0.00
2022-07-28T01:56:48.945Z,0.00
2022-07-28T01:57:48.915Z,0.00
2022-07-28T01:58:48.917Z,0.00
2022-07-28T01:59:48.895Z,0.00
2022-07-28T02:00:48.877Z,0.00
2022-07-28T02:01:48.922Z,0.00
2022-07-28T02:02:48.861Z,0.00
2022-07-28T02:03:48.857Z,0.00
2022-07-28T02:04:49.009Z,0.00
2022-07-28T02:05:48.834Z,0.00
2022-07-28T02:06:48.821Z,0.00
2022-07-28T02:07:48.800Z,0.00
2022-07-28T02:08:48.790Z,0.00
2022-07-28T02:09:48.789Z,0.00
2022-07-28T02:12:06.353Z,0.00
2022-07-28T02:13:06.334Z,0.00
2022-07-28T02:14:06.326Z,0.00
2022-07-28T02:15:06.303Z,0.00
2022-07-28T02:16:06.320Z,0.00
2022-07-28T02:17:06.294Z,0.00
2022-07-28T02:18:06.267Z,0.00
2022-07-28T02:19:06.259Z,0.00
2022-07-28T02:20:06.235Z,0.00
2022-07-28T02:21:06.234Z,0.00
2022-07-28T02:22:06.235Z,0.00
2022-07-28T02:23:06.231Z,0.00
2022-07-28T02:24:06.205Z,0.00
2022-07-28T02:25:06.198Z,0.00
2022-07-28T02:26:06.175Z,0.00
2022-07-28T02:27:06.190Z,0.00
2022-07-28T02:28:06.149Z,0.00
2022-07-28T02:29:06.149Z,0.00
2022-07-28T02:30:06.129Z,0.00
2022-07-28T02:31:06.190Z,0.00
2022-07-28T02:32:06.119Z,0.00
2022-07-28T02:33:07.123Z,0.00
2022-07-28T02:34:07.725Z,0.00
2022-07-28T02:35:06.080Z,0.00
2022-07-28T02:36:06.062Z,0.00
2022-07-28T02:37:06.099Z,0.00
2022-07-28T02:38:06.033Z,0.00
2022-07-28T02:39:06.030Z,0.00
2022-07-28T02:40:06.031Z,0.00
2022-07-28T02:41:06.004Z,0.00
2022-07-28T02:42:06.006Z,0.00
2022-07-28T02:43:05.986Z,0.00
2022-07-28T02:44:05.964Z,0.00
2022-07-28T02:45:05.965Z,0.00
2022-07-28T02:46:05.983Z,0.00
2022-07-28T02:47:05.956Z,0.00
2022-07-28T02:48:05.960Z,0.00
2022-07-28T02:49:05.975Z,0.00
2022-07-28T02:50:05.896Z,0.00
2022-07-28T02:51:05.896Z,0.00
2022-07-28T02:52:05.898Z,0.00
2022-07-28T02:53:15.097Z,0.00
2022-07-28T02:54:06.858Z,0.00
2022-07-28T02:55:05.849Z,0.00
2022-07-28T02:56:05.829Z,0.00
2022-07-28T02:57:05.844Z,0.00
2022-07-28T02:58:06.434Z,0.00
2022-07-28T02:59:05.809Z,0.00
2022-07-28T03:00:05.791Z,0.00
2022-07-28T03:01:05.806Z,0.00
2022-07-28T03:02:05.780Z,0.00
2022-07-28T03:03:05.758Z,0.00
2022-07-28T03:04:05.752Z,0.00
2022-07-28T03:05:07.615Z,0.00
2022-07-28T03:06:06.728Z,0.00
2022-07-28T03:07:05.764Z,0.00
2022-07-28T03:08:05.707Z,0.00
2022-07-28T03:09:05.691Z,0.00
2022-07-28T03:10:05.685Z,0.00
2022-07-28T03:11:05.774Z,0.00
2022-07-28T03:12:05.702Z,4.00
2022-07-28T03:13:05.649Z,0.00
2022-07-28T03:14:05.664Z,0.00
2022-07-28T03:15:05.615Z,0.00
2022-07-28T03:16:05.613Z,0.00
2022-07-28T03:17:05.717Z,0.00
2022-07-28T03:18:05.591Z,4.00
2022-07-28T03:19:05.579Z,0.00
2022-07-28T03:20:05.588Z,0.00
2022-07-28T03:21:05.547Z,4.00
2022-07-28T03:22:05.561Z,0.00
2022-07-28T03:23:05.553Z,0.00
2022-07-28T03:24:05.519Z,4.00
2022-07-28T03:25:05.499Z,4.00
2022-07-28T03:26:05.531Z,4.00
2022-07-28T03:27:05.509Z,4.00
2022-07-28T03:28:05.500Z,4.00
2022-07-28T03:29:05.459Z,4.00
2022-07-28T03:30:05.441Z,4.00
2022-07-28T03:31:05.508Z,4.00
2022-07-28T03:32:05.431Z,4.00
2022-07-28T03:33:05.431Z,4.00
2022-07-28T03:34:05.401Z,8.00
2022-07-28T03:35:05.393Z,8.00
2022-07-28T03:36:05.384Z,8.00
2022-07-28T03:37:05.390Z,8.00
2022-07-28T03:38:05.365Z,8.00
2022-07-28T03:39:05.365Z,8.00
2022-07-28T03:40:05.334Z,12.00
2022-07-28T03:41:05.334Z,8.00
2022-07-28T03:42:05.331Z,8.00
2022-07-28T03:43:05.756Z,12.00
2022-07-28T03:44:05.299Z,12.00
2022-07-28T03:45:05.276Z,12.00
2022-07-28T03:46:09.793Z,12.00
2022-07-28T03:47:06.311Z,12.00
2022-07-28T03:48:05.238Z,12.00
2022-07-28T03:49:05.273Z,12.00
2022-07-28T03:50:06.009Z,16.00
2022-07-28T03:51:05.238Z,12.00
2022-07-28T03:52:05.201Z,16.00
2022-07-28T03:53:05.185Z,16.00
2022-07-28T03:54:05.175Z,16.00
2022-07-28T03:55:05.171Z,20.00
2022-07-28T03:56:05.166Z,24.00
2022-07-28T03:57:05.140Z,28.00
2022-07-28T03:58:05.131Z,28.00
2022-07-28T03:59:05.117Z,32.00
2022-07-28T04:00:09.566Z,36.00
2022-07-28T04:01:05.143Z,36.00
2022-07-28T04:02:05.168Z,36.00
2022-07-28T04:03:05.073Z,40.00
2022-07-28T04:04:06.075Z,44.00
2022-07-28T04:05:05.054Z,48.00
2022-07-28T04:06:05.054Z,48.00
2022-07-28T04:07:05.045Z,48.00
2022-07-28T04:08:05.016Z,52.00
2022-07-28T04:09:05.005Z,52.00
2022-07-28T04:10:04.987Z,52.00
2022-07-28T04:11:05.025Z,44.00
2022-07-28T04:12:05.007Z,44.00
2022-07-28T04:13:04.960Z,52.00
2022-07-28T04:14:04.949Z,56.00
2022-07-28T04:15:04.952Z,64.00
2022-07-28T04:16:04.978Z,68.00
2022-07-28T04:17:04.995Z,68.00
2022-07-28T04:18:04.920Z,52.00
2022-07-28T04:19:04.905Z,44.00
2022-07-28T04:20:04.900Z,36.00
2022-07-28T04:21:04.902Z,40.00
2022-07-28T04:22:04.883Z,40.00
2022-07-28T04:23:04.871Z,48.00
2022-07-28T04:24:04.848Z,52.00
2022-07-28T04:25:04.873Z,52.00
2022-07-28T04:26:04.843Z,36.00
2022-07-28T04:27:04.805Z,36.00
2022-07-28T04:28:05.571Z,40.00
2022-07-28T04:29:04.781Z,40.00
2022-07-28T04:30:04.807Z,40.00
2022-07-28T04:31:04.792Z,44.00
2022-07-28T04:32:04.745Z,40.00
2022-07-28T04:33:04.734Z,44.00
2022-07-28T04:34:04.750Z,48.00
2022-07-28T04:35:04.748Z,56.00
2022-07-28T04:36:04.703Z,60.00
2022-07-28T04:37:04.685Z,64.00
2022-07-28T04:38:04.693Z,72.00
2022-07-28T04:39:04.666Z,84.00
2022-07-28T04:40:04.673Z,100.00
2022-07-28T04:41:04.646Z,88.00
2022-07-28T04:42:04.637Z,68.00
2022-07-28T04:43:04.610Z,60.00
2022-07-28T04:44:04.618Z,56.00
2022-07-28T04:45:04.610Z,60.00
2022-07-28T04:46:04.674Z,56.00
2022-07-28T04:47:06.363Z,52.00
2022-07-28T04:48:04.565Z,44.00
2022-07-28T04:49:04.598Z,44.00
2022-07-28T04:50:04.551Z,40.00
2022-07-28T04:51:04.535Z,40.00
2022-07-28T04:52:04.536Z,40.00
2022-07-28T04:53:04.533Z,40.00
2022-07-28T04:54:04.502Z,44.00
2022-07-28T04:55:04.507Z,44.00
2022-07-28T04:56:04.471Z,44.00
2022-07-28T04:57:09.391Z,48.00
2022-07-28T04:58:05.456Z,44.00
2022-07-28T04:59:04.436Z,48.00
2022-07-28T05:00:04.435Z,48.00
2022-07-28T05:01:04.521Z,52.00
2022-07-28T05:02:04.407Z,52.00
2022-07-28T05:03:04.462Z,56.00
2022-07-28T05:04:04.404Z,72.00
2022-07-28T05:05:04.504Z,76.00
2022-07-28T05:06:04.357Z,64.00
2022-07-28T05:07:08.012Z,60.00
2022-07-28T05:08:05.337Z,68.00
2022-07-28T05:09:04.329Z,72.00
2022-07-28T05:10:04.342Z,68.00
2022-07-28T05:11:04.299Z,64.00
2022-07-28T05:12:04.300Z,60.00
2022-07-28T05:13:04.284Z,56.00
2022-07-28T05:14:04.283Z,56.00
2022-07-28T05:15:04.253Z,60.00
2022-07-28T05:16:04.315Z,60.00
2022-07-28T05:17:04.298Z,60.00
2022-07-28T05:18:04.221Z,56.00
2022-07-28T05:19:04.223Z,56.00
2022-07-28T05:20:04.193Z,60.00
2022-07-28T05:21:04.181Z,60.00
2022-07-28T05:22:04.173Z,60.00
2022-07-28T05:23:04.156Z,60.00
2022-07-28T05:24:04.174Z,60.00
2022-07-28T05:25:04.145Z,60.00
2022-07-28T05:26:04.128Z,60.00
2022-07-28T05:27:04.106Z,64.00
2022-07-28T05:28:04.103Z,64.00
2022-07-28T05:29:04.316Z,68.00
2022-07-28T05:30:04.075Z,68.00
2022-07-28T05:31:04.085Z,72.00
2022-07-28T05:32:15.546Z,68.00
2022-07-28T05:33:05.047Z,68.00
2022-07-28T05:34:04.077Z,72.00
2022-07-28T05:35:04.018Z,68.00
2022-07-28T05:36:04.037Z,72.00
2022-07-28T05:37:03.996Z,72.00
2022-07-28T05:38:07.609Z,68.00
2022-07-28T05:39:04.998Z,68.00
2022-07-28T05:40:03.959Z,72.00
2022-07-28T05:41:03.953Z,68.00
2022-07-28T05:42:03.954Z,68.00
2022-07-28T05:43:03.930Z,68.00
2022-07-28T05:44:03.933Z,68.00
2022-07-28T05:45:03.901Z,64.00
2022-07-28T05:46:04.985Z,64.00
2022-07-28T05:47:03.893Z,68.00
2022-07-28T05:48:03.919Z,64.00
2022-07-28T05:49:03.932Z,60.00
2022-07-28T05:50:03.848Z,60.00
2022-07-28T05:51:03.830Z,60.00
2022-07-28T05:52:03.840Z,60.00
2022-07-28T05:53:03.823Z,56.00
2022-07-28T05:54:03.827Z,52.00
2022-07-28T05:55:03.784Z,56.00
2022-07-28T05:56:03.785Z,56.00
2022-07-28T05:57:03.759Z,56.00
2022-07-28T05:58:03.761Z,56.00
2022-07-28T05:59:03.757Z,56.00
2022-07-28T06:00:03.747Z,56.00
2022-07-28T06:01:03.782Z,56.00
2022-07-28T06:02:03.747Z,56.00
2022-07-28T06:03:03.708Z,60.00
2022-07-28T06:04:26.404Z,64.00
2022-07-28T06:05:04.748Z,64.00
2022-07-28T06:06:16.229Z,68.00
2022-07-28T06:07:04.649Z,68.00
2022-07-28T06:08:03.827Z,68.00
2022-07-28T06:09:03.729Z,68.00
2022-07-28T06:10:03.621Z,72.00
2022-07-28T06:11:03.601Z,72.00
2022-07-28T06:12:03.604Z,68.00
2022-07-28T06:13:03.630Z,68.00
2022-07-28T06:14:03.621Z,68.00
2022-07-28T06:15:03.574Z,64.00
2022-07-28T06:16:03.633Z,64.00
2022-07-28T06:17:03.636Z,60.00
2022-07-28T06:18:03.533Z,68.00
2022-07-28T06:19:03.536Z,68.00
2022-07-28T06:20:03.524Z,64.00
2022-07-28T06:21:03.511Z,60.00
2022-07-28T06:22:03.504Z,64.00
2022-07-28T06:23:03.464Z,68.00
2022-07-28T06:24:03.475Z,60.00
2022-07-28T06:25:03.455Z,60.00
2022-07-28T06:26:03.445Z,60.00
2022-07-28T06:27:03.455Z,60.00
2022-07-28T06:28:03.416Z,64.00
2022-07-28T06:29:03.431Z,68.00
2022-07-28T06:30:03.391Z,72.00
2022-07-28T06:31:03.395Z,72.00
2022-07-28T06:32:03.518Z,76.00
2022-07-28T06:33:03.379Z,72.00
2022-07-28T06:34:03.395Z,72.00
2022-07-28T06:35:03.329Z,68.00
2022-07-28T06:36:03.319Z,64.00
2022-07-28T06:37:03.330Z,64.00
2022-07-28T06:38:03.323Z,72.00
2022-07-28T06:39:03.323Z,80.00
2022-07-28T06:40:03.322Z,80.00
2022-07-28T06:41:03.281Z,76.00
2022-07-28T06:42:03.263Z,80.00
2022-07-28T06:43:03.244Z,76.00
2022-07-28T06:44:03.254Z,80.00
2022-07-28T06:45:03.228Z,76.00
2022-07-28T06:46:03.212Z,72.00
2022-07-28T06:47:03.281Z,68.00
2022-07-28T06:48:03.194Z,68.00
2022-07-28T06:49:03.248Z,64.00
2022-07-28T06:50:03.212Z,68.00
2022-07-28T06:51:03.937Z,72.00
2022-07-28T06:52:03.148Z,72.00
2022-07-28T06:53:03.129Z,72.00
2022-07-28T06:54:05.795Z,64.00
2022-07-28T06:55:04.099Z,72.00
2022-07-28T06:56:04.075Z,76.00
2022-07-28T06:57:03.087Z,72.00
2022-07-28T06:58:03.181Z,76.00
2022-07-28T06:59:03.081Z,76.00
2022-07-28T07:00:03.060Z,76.00
2022-07-28T07:01:03.063Z,76.00
2022-07-28T07:02:03.021Z,76.00
2022-07-28T07:03:03.211Z,76.00
2022-07-28T07:04:03.087Z,76.00
2022-07-28T07:05:03.011Z,76.00
2022-07-28T07:06:03.012Z,76.00
2022-07-28T07:07:02.983Z,72.00
2022-07-28T07:08:03.996Z,72.00
2022-07-28T07:09:02.946Z,76.00
2022-07-28T07:10:02.948Z,76.00
2022-07-28T07:11:02.937Z,76.00
2022-07-28T07:12:02.916Z,76.00
2022-07-28T07:13:02.946Z,76.00
2022-07-28T07:14:02.905Z,76.00
2022-07-28T07:15:02.885Z,76.00
2022-07-28T07:16:02.916Z,76.00
2022-07-28T07:17:02.854Z,76.00
2022-07-28T07:18:02.901Z,76.00
2022-07-28T07:19:05.747Z,80.00
2022-07-28T07:20:02.819Z,80.00
2022-07-28T07:21:02.807Z,80.00
2022-07-28T07:22:02.819Z,80.00
2022-07-28T07:23:02.833Z,84.00
2022-07-28T07:24:02.779Z,88.00
2022-07-28T07:25:02.760Z,88.00
2022-07-28T07:26:02.752Z,92.00
2022-07-28T07:27:02.750Z,88.00
2022-07-28T07:28:02.789Z,88.00
2022-07-28T07:29:02.753Z,92.00
2022-07-28T07:30:02.710Z,88.00
2022-07-28T07:31:02.731Z,92.00
2022-07-28T07:32:05.654Z,92.00
2022-07-28T07:33:03.683Z,92.00
2022-07-28T07:34:02.674Z,92.00
2022-07-28T07:35:02.683Z,88.00
2022-07-28T07:36:02.644Z,84.00
2022-07-28T07:37:02.622Z,84.00
2022-07-28T07:38:02.636Z,84.00
2022-07-28T07:39:02.605Z,88.00
2022-07-28T07:40:02.606Z,84.00
2022-07-28T07:41:02.577Z,84.00
2022-07-28T07:42:02.566Z,84.00
2022-07-28T07:43:02.573Z,84.00
2022-07-28T07:44:02.548Z,84.00
2022-07-28T07:45:02.537Z,84.00
2022-07-28T07:46:02.542Z,80.00
2022-07-28T07:47:02.596Z,84.00
2022-07-28T07:48:02.523Z,84.00
2022-07-28T07:49:03.463Z,84.00
2022-07-28T07:50:04.441Z,88.00
2022-07-28T07:51:02.472Z,92.00
2022-07-28T07:52:02.481Z,92.00
2022-07-28T07:53:02.493Z,92.00
2022-07-28T07:54:02.463Z,96.00
2022-07-28T07:55:02.423Z,92.00
2022-07-28T07:56:02.439Z,92.00
2022-07-28T07:57:02.402Z,96.00
2022-07-28T07:58:02.421Z,92.00
2022-07-28T07:59:02.372Z,96.00
2022-07-28T08:00:02.372Z,92.00
2022-07-28T08:01:02.369Z,88.00
2022-07-28T08:02:02.454Z,92.00
2022-07-28T08:03:02.362Z,88.00
2022-07-28T08:04:02.383Z,88.00
2022-07-28T08:05:02.404Z,88.00
2022-07-28T08:06:02.328Z,88.00
2022-07-28T08:07:02.290Z,88.00
2022-07-28T08:08:02.305Z,88.00
2022-07-28T08:09:02.266Z,88.00
2022-07-28T08:10:02.247Z,88.00
2022-07-28T08:11:02.238Z,88.00
2022-07-28T08:12:02.227Z,88.00
2022-07-28T08:13:02.227Z,88.00
2022-07-28T08:14:02.226Z,88.00
2022-07-28T08:15:02.198Z,88.00
2022-07-28T08:16:02.245Z,84.00
2022-07-28T08:17:02.171Z,84.00
2022-07-28T08:18:02.183Z,88.00
2022-07-28T08:19:02.170Z,88.00
2022-07-28T08:20:02.154Z,84.00
2022-07-28T08:21:02.130Z,88.00
2022-07-28T08:22:02.110Z,88.00
2022-07-28T08:23:02.185Z,88.00
2022-07-28T08:24:02.112Z,92.00
2022-07-28T08:25:02.095Z,88.00
2022-07-28T08:26:02.103Z,92.00
2022-07-28T08:27:02.089Z,92.00
2022-07-28T08:28:02.053Z,92.00
2022-07-28T08:29:02.035Z,92.00
2022-07-28T08:30:02.107Z,96.00
2022-07-28T08:31:02.101Z,92.00
2022-07-28T08:32:01.996Z,92.00
2022-07-28T08:33:02.004Z,92.00
2022-07-28T08:34:01.975Z,96.00
2022-07-28T08:35:30.380Z,96.00
2022-07-28T08:36:02.970Z,92.00
2022-07-28T08:37:01.951Z,88.00
2022-07-28T08:38:01.948Z,92.00
2022-07-28T08:39:01.928Z,92.00
2022-07-28T08:40:01.924Z,92.00
2022-07-28T08:41:01.920Z,92.00
2022-07-28T08:42:01.878Z,92.00
2022-07-28T08:43:01.896Z,88.00
2022-07-28T08:44:01.859Z,88.00
2022-07-28T08:45:01.920Z,88.00
2022-07-28T08:46:01.909Z,88.00
2022-07-28T08:47:01.878Z,88.00
2022-07-28T08:48:09.790Z,92.00
2022-07-28T08:49:02.901Z,92.00
2022-07-28T08:50:01.799Z,88.00
2022-07-28T08:51:01.789Z,88.00
2022-07-28T08:52:01.783Z,88.00
2022-07-28T08:53:01.793Z,88.00
2022-07-28T08:54:01.742Z,88.00
2022-07-28T08:55:01.754Z,88.00
2022-07-28T08:56:01.723Z,88.00
2022-07-28T08:57:01.737Z,88.00
2022-07-28T08:58:01.744Z,88.00
2022-07-28T08:59:01.714Z,88.00
2022-07-28T09:00:01.700Z,84.00
2022-07-28T09:01:01.675Z,88.00
2022-07-28T09:02:01.729Z,88.00
2022-07-28T09:03:01.712Z,88.00
2022-07-28T09:04:01.660Z,88.00
2022-07-28T09:05:01.658Z,88.00
2022-07-28T09:06:01.609Z,84.00
2022-07-28T09:07:01.629Z,84.00
2022-07-28T09:08:01.605Z,88.00
2022-07-28T09:09:01.592Z,88.00
2022-07-28T09:10:02.443Z,88.00
2022-07-28T09:11:01.578Z,88.00
2022-07-28T09:12:01.588Z,88.00
2022-07-28T09:13:01.546Z,88.00
2022-07-28T09:14:01.536Z,88.00
2022-07-28T09:15:01.510Z,84.00
2022-07-28T09:16:01.564Z,88.00
2022-07-28T09:17:01.521Z,88.00
2022-07-28T09:18:01.545Z,88.00
2022-07-28T09:19:01.482Z,88.00
2022-07-28T09:20:01.484Z,88.00
2022-07-28T09:21:01.464Z,88.00
2022-07-28T09:22:01.486Z,88.00
2022-07-28T09:23:01.428Z,88.00
2022-07-28T09:24:01.404Z,88.00
2022-07-28T09:25:01.444Z,92.00
2022-07-28T09:26:01.390Z,88.00
2022-07-28T09:27:01.385Z,88.00
2022-07-28T09:28:01.364Z,88.00
2022-07-28T09:29:01.353Z,88.00
2022-07-28T09:30:01.356Z,88.00
2022-07-28T09:31:01.408Z,92.00
2022-07-28T09:32:01.458Z,92.00
2022-07-28T09:33:01.332Z,92.00
2022-07-28T09:34:01.342Z,92.00
2022-07-28T09:35:01.295Z,92.00
2022-07-28T09:36:02.541Z,88.00
2022-07-28T09:37:01.290Z,88.00
2022-07-28T09:38:01.261Z,92.00
2022-07-28T09:39:01.242Z,92.00
2022-07-28T09:40:04.052Z,92.00
2022-07-28T09:41:01.210Z,88.00
2022-07-28T09:42:01.222Z,88.00
2022-07-28T09:43:01.190Z,92.00
2022-07-28T09:44:01.206Z,88.00
2022-07-28T09:45:21.860Z,92.00
2022-07-28T09:46:02.194Z,92.00
2022-07-28T09:47:01.373Z,92.00
2022-07-28T09:48:01.230Z,84.00
2022-07-28T09:49:01.506Z,92.00
2022-07-28T09:50:01.219Z,92.00
2022-07-28T09:51:01.104Z,92.00
2022-07-28T09:52:01.105Z,92.00
2022-07-28T09:53:01.086Z,92.00
2022-07-28T09:54:01.057Z,92.00
2022-07-28T09:55:01.066Z,92.00
2022-07-28T09:56:01.039Z,92.00
2022-07-28T09:57:01.049Z,92.00
2022-07-28T09:58:01.018Z,92.00
2022-07-28T09:59:01.018Z,92.00
2022-07-28T10:00:00.998Z,92.00
2022-07-28T10:01:00.995Z,92.00
2022-07-28T10:02:01.723Z,92.00
2022-07-28T10:03:00.992Z,92.00
2022-07-28T10:04:02.785Z,92.00
2022-07-28T10:05:01.638Z,96.00
2022-07-28T10:06:00.936Z,92.00
2022-07-28T10:07:00.933Z,96.00
2022-07-28T10:08:00.903Z,96.00
2022-07-28T10:09:00.893Z,92.00
2022-07-28T10:10:00.910Z,96.00
2022-07-28T10:11:00.883Z,92.00
2022-07-28T10:12:00.873Z,92.00
2022-07-28T10:13:00.849Z,96.00
2022-07-28T10:14:00.837Z,96.00
2022-07-28T10:15:00.836Z,96.00
2022-07-28T10:16:00.872Z,96.00
2022-07-28T10:17:05.905Z,96.00
2022-07-28T10:18:01.794Z,96.00
2022-07-28T10:19:00.789Z,96.00
2022-07-28T10:20:00.769Z,96.00
2022-07-28T10:21:00.757Z,96.00
2022-07-28T10:22:00.755Z,100.00
2022-07-28T10:23:00.799Z,96.00
2022-07-28T10:24:00.725Z,96.00
2022-07-28T10:25:00.719Z,96.00
2022-07-28T10:26:00.703Z,100.00
2022-07-28T10:27:00.720Z,100.00
2022-07-28T10:28:00.679Z,100.00
2022-07-28T10:29:00.680Z,104.00
2022-07-28T10:30:00.679Z,104.00
2022-07-28T10:31:00.680Z,104.00
2022-07-28T10:32:00.648Z,100.00
2022-07-28T10:33:00.624Z,96.00
2022-07-28T10:34:00.612Z,100.00
2022-07-28T10:35:00.602Z,100.00
2022-07-28T10:36:00.623Z,100.00
2022-07-28T10:37:00.594Z,104.00
2022-07-28T10:38:00.553Z,104.00
2022-07-28T10:39:00.554Z,104.00
2022-07-28T10:40:00.553Z,104.00
2022-07-28T10:41:00.549Z,104.00
2022-07-28T10:42:00.528Z,104.00
2022-07-28T10:43:00.526Z,104.00
2022-07-28T10:44:00.503Z,100.00
2022-07-28T10:45:00.484Z,100.00
2022-07-28T10:46:06.103Z,104.00
2022-07-28T10:47:01.580Z,100.00
2022-07-28T10:48:00.472Z,104.00
2022-07-28T10:49:00.489Z,108.00
2022-07-28T10:50:00.455Z,112.00
2022-07-28T10:51:00.428Z,108.00
2022-07-28T10:52:04.865Z,104.00
2022-07-28T10:53:01.389Z,96.00
2022-07-28T10:54:00.369Z,104.00
2022-07-28T10:55:00.369Z,104.00
2022-07-28T10:56:00.370Z,104.00
2022-07-28T10:57:00.351Z,112.00
2022-07-28T10:58:02.226Z,120.00
2022-07-28T10:59:04.751Z,92.00
2022-07-28T11:00:05.266Z,116.00
2022-07-28T11:01:06.009Z,112.00
2022-07-28T11:02:01.389Z,108.00
2022-07-28T11:03:00.498Z,108.00
2022-07-28T11:04:00.344Z,108.00
2022-07-28T11:05:00.253Z,108.00
2022-07-28T11:06:00.244Z,108.00
2022-07-28T11:07:00.235Z,112.00
2022-07-28T11:08:00.222Z,108.00
2022-07-28T11:09:00.205Z,108.00
2022-07-28T11:10:00.189Z,108.00
2022-07-28T11:11:09.415Z,84.00
2022-07-28T11:12:01.955Z,88.00
2022-07-28T11:13:00.164Z,88.00
2022-07-28T11:14:00.147Z,100.00
2022-07-28T11:15:15.936Z,104.00
2022-07-28T11:16:01.138Z,100.00
2022-07-28T11:17:00.175Z,100.00
2022-07-28T11:18:00.118Z,100.00
2022-07-28T11:19:00.111Z,100.00
2022-07-28T11:20:16.787Z,100.00
2022-07-28T11:21:01.089Z,100.00
2022-07-28T11:22:00.050Z,104.00
2022-07-28T11:23:00.067Z,104.00
2022-07-28T11:24:00.048Z,108.00
2022-07-28T11:25:00.042Z,108.00
2022-07-28T11:26:00.037Z,108.00
2022-07-28T11:27:03.999Z,104.00
2022-07-28T11:28:00.007Z,100.00
2022-07-28T11:28:59.981Z,104.00
2022-07-28T11:29:59.973Z,104.00
2022-07-28T11:31:00.030Z,104.00
2022-07-28T11:31:59.950Z,100.00
2022-07-28T11:32:59.936Z,100.00
2022-07-28T11:33:59.913Z,100.00
2022-07-28T11:34:59.956Z,100.00
2022-07-28T11:35:59.947Z,96.00
2022-07-28T11:36:59.886Z,100.00
2022-07-28T11:37:59.885Z,100.00
2022-07-28T11:38:59.895Z,100.00
2022-07-28T11:39:59.869Z,100.00
2022-07-28T11:40:59.847Z,104.00
2022-07-28T11:41:59.842Z,100.00
2022-07-28T11:42:59.827Z,100.00
2022-07-28T11:43:59.812Z,100.00
2022-07-28T11:44:59.827Z,96.00
2022-07-28T11:45:59.899Z,96.00
2022-07-28T11:46:59.778Z,96.00
2022-07-28T11:47:59.772Z,96.00
2022-07-28T11:48:59.821Z,92.00
2022-07-28T11:49:59.750Z,96.00
2022-07-28T11:50:59.730Z,96.00
2022-07-28T11:51:59.720Z,96.00
2022-07-28T11:52:59.724Z,100.00
2022-07-28T11:53:59.691Z,100.00
2022-07-28T11:54:59.830Z,96.00
2022-07-28T11:56:02.976Z,96.00
2022-07-28T11:56:59.662Z,96.00
2022-07-28T11:57:59.651Z,84.00
2022-07-28T11:58:59.652Z,96.00
2022-07-28T11:59:59.672Z,96.00
2022-07-28T12:00:59.642Z,96.00
2022-07-28T12:01:59.664Z,96.00
2022-07-28T12:02:59.595Z,96.00
2022-07-28T12:03:59.744Z,96.00
2022-07-28T12:04:59.635Z,92.00
2022-07-28T12:05:59.577Z,92.00
2022-07-28T12:06:59.552Z,96.00
2022-07-28T12:07:59.538Z,88.00
2022-07-28T12:08:59.534Z,92.00
2022-07-28T12:10:00.478Z,92.00
2022-07-28T12:10:59.549Z,92.00
2022-07-28T12:11:59.551Z,92.00
2022-07-28T12:12:59.478Z,96.00
2022-07-28T12:13:59.605Z,96.00
2022-07-28T12:15:04.744Z,96.00
2022-07-28T12:16:01.219Z,92.00
2022-07-28T12:16:59.468Z,92.00
2022-07-28T12:17:59.431Z,96.00
2022-07-28T12:18:59.410Z,92.00
2022-07-28T12:19:59.409Z,88.00
2022-07-28T12:21:04.582Z,92.00
2022-07-28T12:22:00.392Z,92.00
2022-07-28T12:22:59.366Z,96.00
2022-07-28T12:23:59.344Z,96.00
2022-07-28T12:24:59.356Z,96.00
2022-07-28T12:25:59.334Z,96.00
2022-07-28T12:26:59.313Z,96.00
2022-07-28T12:27:59.305Z,88.00
2022-07-28T12:28:59.297Z,92.00
2022-07-28T12:29:59.302Z,96.00
2022-07-28T12:30:59.265Z,92.00
2022-07-28T12:31:59.569Z,92.00
2022-07-28T12:32:59.257Z,88.00
2022-07-28T12:33:59.367Z,92.00
2022-07-28T12:34:59.243Z,92.00
2022-07-28T12:35:59.217Z,92.00
2022-07-28T12:36:59.199Z,96.00
2022-07-28T12:37:59.198Z,96.00
2022-07-28T12:38:59.187Z,96.00
2022-07-28T12:39:59.203Z,96.00
2022-07-28T12:40:59.149Z,92.00
2022-07-28T12:41:59.182Z,92.00
2022-07-28T12:42:59.138Z,92.00
2022-07-28T12:43:59.119Z,92.00
2022-07-28T12:44:59.122Z,96.00
2022-07-28T12:45:59.168Z,92.00
2022-07-28T12:46:59.081Z,92.00
2022-07-28T12:47:59.098Z,96.00
2022-07-28T12:48:59.117Z,92.00
2022-07-28T12:50:01.403Z,92.00
2022-07-28T12:51:00.032Z,96.00
2022-07-28T12:51:59.043Z,96.00
2022-07-28T12:52:59.013Z,96.00
2022-07-28T12:53:59.004Z,96.00
2022-07-28T12:54:59.034Z,96.00
2022-07-28T12:55:58.985Z,96.00
2022-07-28T12:56:58.975Z,96.00
2022-07-28T12:57:58.965Z,92.00
2022-07-28T12:58:58.954Z,96.00